sensor_id;sensor_type;location;lat;lon;timestamp;P1;durP1;ratioP1;P2;durP2;ratioP2
59607;SDS011;45426;44.726;10.390;2023-04-16T00:02:22;7.45;;;3.20;;
59607;SDS011;45426;44.726;10.390;2023-04-16T00:04:48;8.80;;;3.90;;
59607;SDS011;45426;44.726;10.390;2023-04-16T00:07:13;10.25;;;3.40;;
59607;SDS011;45426;44.726;10.390;2023-04-16T00:09:39;7.93;;;3.58;;
59607;SDS011;45426;44.726;10.390;2023-04-16T00:12:05;10.50;;;3.63;;
59607;SDS011;45426;44.726;10.390;2023-04-16T00:14:30;8.00;;;3.90;;
59607;SDS011;45426;44.726;10.390;2023-04-16T00:16:56;10.02;;;3.65;;
59607;SDS011;45426;44.726;10.390;2023-04-16T00:19:21;9.85;;;3.92;;
59607;SDS011;45426;44.726;10.390;2023-04-16T00:21:47;9.75;;;4.13;;
59607;SDS011;45426;44.726;10.390;2023-04-16T00:24:12;7.93;;;3.60;;
59607;SDS011;45426;44.726;10.390;2023-04-16T00:26:38;12.20;;;3.97;;
59607;SDS011;45426;44.726;10.390;2023-04-16T00:29:05;7.95;;;3.35;;
59607;SDS011;45426;44.726;10.390;2023-04-16T00:31:31;7.40;;;3.50;;
59607;SDS011;45426;44.726;10.390;2023-04-16T00:33:58;9.88;;;3.80;;
59607;SDS011;45426;44.726;10.390;2023-04-16T00:36:23;9.95;;;4.18;;
59607;SDS011;45426;44.726;10.390;2023-04-16T00:38:51;9.05;;;3.80;;
59607;SDS011;45426;44.726;10.390;2023-04-16T00:41:17;7.43;;;3.90;;
59607;SDS011;45426;44.726;10.390;2023-04-16T00:43:43;10.02;;;3.58;;
59607;SDS011;45426;44.726;10.390;2023-04-16T00:46:08;9.45;;;3.70;;
59607;SDS011;45426;44.726;10.390;2023-04-16T00:48:34;9.20;;;3.58;;
59607;SDS011;45426;44.726;10.390;2023-04-16T00:51:04;8.07;;;3.55;;
59607;SDS011;45426;44.726;10.390;2023-04-16T00:53:31;7.28;;;3.60;;
59607;SDS011;45426;44.726;10.390;2023-04-16T00:55:58;8.85;;;3.45;;
59607;SDS011;45426;44.726;10.390;2023-04-16T00:58:24;9.27;;;4.05;;
59607;SDS011;45426;44.726;10.390;2023-04-16T01:00:50;7.50;;;3.50;;
59607;SDS011;45426;44.726;10.390;2023-04-16T01:03:15;9.05;;;3.90;;
59607;SDS011;45426;44.726;10.390;2023-04-16T01:05:42;8.20;;;3.45;;
59607;SDS011;45426;44.726;10.390;2023-04-16T01:08:16;10.35;;;3.78;;
59607;SDS011;45426;44.726;10.390;2023-04-16T01:10:43;6.65;;;3.30;;
59607;SDS011;45426;44.726;10.390;2023-04-16T01:13:09;6.78;;;3.28;;
59607;SDS011;45426;44.726;10.390;2023-04-16T01:15:35;8.05;;;3.30;;
59607;SDS011;45426;44.726;10.390;2023-04-16T01:18:01;7.93;;;3.30;;
59607;SDS011;45426;44.726;10.390;2023-04-16T01:20:26;9.43;;;3.80;;
59607;SDS011;45426;44.726;10.390;2023-04-16T01:22:51;15.40;;;3.78;;
59607;SDS011;45426;44.726;10.390;2023-04-16T01:25:17;7.50;;;3.75;;
59607;SDS011;45426;44.726;10.390;2023-04-16T01:27:42;8.48;;;3.53;;
59607;SDS011;45426;44.726;10.390;2023-04-16T01:30:08;7.32;;;3.40;;
59607;SDS011;45426;44.726;10.390;2023-04-16T01:32:34;9.35;;;3.45;;
59607;SDS011;45426;44.726;10.390;2023-04-16T01:34:59;9.95;;;3.83;;
59607;SDS011;45426;44.726;10.390;2023-04-16T01:37:25;7.40;;;3.50;;
59607;SDS011;45426;44.726;10.390;2023-04-16T01:39:50;8.52;;;3.50;;
59607;SDS011;45426;44.726;10.390;2023-04-16T01:42:16;7.35;;;3.63;;
59607;SDS011;45426;44.726;10.390;2023-04-16T01:44:41;8.80;;;3.50;;
59607;SDS011;45426;44.726;10.390;2023-04-16T01:47:07;7.22;;;3.45;;
59607;SDS011;45426;44.726;10.390;2023-04-16T01:49:32;8.90;;;3.30;;
59607;SDS011;45426;44.726;10.390;2023-04-16T01:51:58;6.45;;;3.20;;
59607;SDS011;45426;44.726;10.390;2023-04-16T01:54:24;9.68;;;3.38;;
59607;SDS011;45426;44.726;10.390;2023-04-16T01:56:50;9.40;;;3.78;;
59607;SDS011;45426;44.726;10.390;2023-04-16T01:59:15;8.05;;;3.33;;
59607;SDS011;45426;44.726;10.390;2023-04-16T02:01:40;6.20;;;3.38;;
59607;SDS011;45426;44.726;10.390;2023-04-16T02:04:07;7.97;;;3.40;;
59607;SDS011;45426;44.726;10.390;2023-04-16T02:06:32;13.02;;;3.63;;
59607;SDS011;45426;44.726;10.390;2023-04-16T02:08:58;8.95;;;3.90;;
59607;SDS011;45426;44.726;10.390;2023-04-16T02:11:23;7.82;;;3.22;;
59607;SDS011;45426;44.726;10.390;2023-04-16T02:13:49;7.20;;;3.10;;
59607;SDS011;45426;44.726;10.390;2023-04-16T02:16:15;5.65;;;3.13;;
59607;SDS011;45426;44.726;10.390;2023-04-16T02:18:40;6.35;;;2.92;;
59607;SDS011;45426;44.726;10.390;2023-04-16T02:21:06;5.72;;;3.55;;
59607;SDS011;45426;44.726;10.390;2023-04-16T02:23:31;7.10;;;3.20;;
59607;SDS011;45426;44.726;10.390;2023-04-16T02:25:57;11.15;;;3.60;;
59607;SDS011;45426;44.726;10.390;2023-04-16T02:28:22;7.82;;;2.95;;
59607;SDS011;45426;44.726;10.390;2023-04-16T02:30:48;6.20;;;2.85;;
59607;SDS011;45426;44.726;10.390;2023-04-16T02:33:13;7.47;;;3.40;;
59607;SDS011;45426;44.726;10.390;2023-04-16T02:35:39;5.97;;;3.13;;
59607;SDS011;45426;44.726;10.390;2023-04-16T02:38:05;11.15;;;3.78;;
59607;SDS011;45426;44.726;10.390;2023-04-16T02:40:31;8.85;;;3.22;;
59607;SDS011;45426;44.726;10.390;2023-04-16T02:42:57;8.63;;;3.20;;
59607;SDS011;45426;44.726;10.390;2023-04-16T02:45:23;7.30;;;3.08;;
59607;SDS011;45426;44.726;10.390;2023-04-16T02:47:48;9.55;;;3.78;;
59607;SDS011;45426;44.726;10.390;2023-04-16T02:50:14;6.78;;;3.22;;
59607;SDS011;45426;44.726;10.390;2023-04-16T02:52:40;9.90;;;3.88;;
59607;SDS011;45426;44.726;10.390;2023-04-16T02:55:05;8.88;;;3.42;;
59607;SDS011;45426;44.726;10.390;2023-04-16T02:57:31;13.98;;;4.55;;
59607;SDS011;45426;44.726;10.390;2023-04-16T02:59:57;6.97;;;3.50;;
59607;SDS011;45426;44.726;10.390;2023-04-16T03:02:22;9.23;;;3.70;;
59607;SDS011;45426;44.726;10.390;2023-04-16T03:04:48;10.43;;;3.67;;
59607;SDS011;45426;44.726;10.390;2023-04-16T03:07:13;9.65;;;3.53;;
59607;SDS011;45426;44.726;10.390;2023-04-16T03:09:39;7.68;;;3.35;;
59607;SDS011;45426;44.726;10.390;2023-04-16T03:12:05;11.02;;;3.60;;
59607;SDS011;45426;44.726;10.390;2023-04-16T03:14:30;6.65;;;3.58;;
59607;SDS011;45426;44.726;10.390;2023-04-16T03:16:56;8.63;;;3.65;;
59607;SDS011;45426;44.726;10.390;2023-04-16T03:19:21;9.48;;;3.67;;
59607;SDS011;45426;44.726;10.390;2023-04-16T03:21:47;7.20;;;3.30;;
59607;SDS011;45426;44.726;10.390;2023-04-16T03:24:12;10.80;;;4.07;;
59607;SDS011;45426;44.726;10.390;2023-04-16T03:26:38;9.88;;;3.70;;
59607;SDS011;45426;44.726;10.390;2023-04-16T03:29:03;7.10;;;3.22;;
59607;SDS011;45426;44.726;10.390;2023-04-16T03:31:29;6.97;;;3.33;;
59607;SDS011;45426;44.726;10.390;2023-04-16T03:33:55;6.57;;;3.30;;
59607;SDS011;45426;44.726;10.390;2023-04-16T03:36:20;7.95;;;3.28;;
59607;SDS011;45426;44.726;10.390;2023-04-16T03:38:47;7.35;;;3.08;;
59607;SDS011;45426;44.726;10.390;2023-04-16T03:41:12;7.57;;;3.10;;
59607;SDS011;45426;44.726;10.390;2023-04-16T03:43:38;7.95;;;3.17;;
59607;SDS011;45426;44.726;10.390;2023-04-16T03:46:04;9.80;;;3.15;;
59607;SDS011;45426;44.726;10.390;2023-04-16T03:48:29;8.50;;;3.40;;
59607;SDS011;45426;44.726;10.390;2023-04-16T03:50:55;8.13;;;3.38;;
59607;SDS011;45426;44.726;10.390;2023-04-16T03:53:20;7.65;;;2.97;;
59607;SDS011;45426;44.726;10.390;2023-04-16T03:55:48;6.72;;;3.00;;
59607;SDS011;45426;44.726;10.390;2023-04-16T03:58:15;5.68;;;3.00;;
59607;SDS011;45426;44.726;10.390;2023-04-16T04:00:41;7.82;;;2.90;;
59607;SDS011;45426;44.726;10.390;2023-04-16T04:03:07;6.82;;;3.05;;
59607;SDS011;45426;44.726;10.390;2023-04-16T04:05:36;8.43;;;3.22;;
59607;SDS011;45426;44.726;10.390;2023-04-16T04:08:03;8.25;;;3.13;;
59607;SDS011;45426;44.726;10.390;2023-04-16T04:10:30;7.82;;;3.30;;
59607;SDS011;45426;44.726;10.390;2023-04-16T04:12:56;8.57;;;3.72;;
59607;SDS011;45426;44.726;10.390;2023-04-16T04:15:22;11.98;;;3.35;;
59607;SDS011;45426;44.726;10.390;2023-04-16T04:17:47;5.65;;;3.13;;
59607;SDS011;45426;44.726;10.390;2023-04-16T04:20:13;7.65;;;3.13;;
59607;SDS011;45426;44.726;10.390;2023-04-16T04:22:38;5.30;;;3.17;;
59607;SDS011;45426;44.726;10.390;2023-04-16T04:25:04;7.53;;;3.00;;
59607;SDS011;45426;44.726;10.390;2023-04-16T04:27:29;9.95;;;3.45;;
59607;SDS011;45426;44.726;10.390;2023-04-16T04:29:55;7.75;;;2.90;;
59607;SDS011;45426;44.726;10.390;2023-04-16T04:32:20;12.38;;;3.50;;
59607;SDS011;45426;44.726;10.390;2023-04-16T04:34:46;8.07;;;2.90;;
59607;SDS011;45426;44.726;10.390;2023-04-16T04:37:11;8.60;;;2.95;;
59607;SDS011;45426;44.726;10.390;2023-04-16T04:39:37;10.38;;;3.78;;
59607;SDS011;45426;44.726;10.390;2023-04-16T04:42:02;10.88;;;2.90;;
59607;SDS011;45426;44.726;10.390;2023-04-16T04:44:28;5.95;;;3.10;;
59607;SDS011;45426;44.726;10.390;2023-04-16T04:46:53;11.48;;;3.45;;
59607;SDS011;45426;44.726;10.390;2023-04-16T04:49:19;10.55;;;3.38;;
59607;SDS011;45426;44.726;10.390;2023-04-16T04:51:44;7.28;;;3.10;;
59607;SDS011;45426;44.726;10.390;2023-04-16T04:54:10;8.13;;;2.92;;
59607;SDS011;45426;44.726;10.390;2023-04-16T04:56:35;9.70;;;3.33;;
59607;SDS011;45426;44.726;10.390;2023-04-16T04:59:01;8.52;;;3.42;;
59607;SDS011;45426;44.726;10.390;2023-04-16T05:01:26;7.88;;;3.10;;
59607;SDS011;45426;44.726;10.390;2023-04-16T05:03:52;12.45;;;4.22;;
59607;SDS011;45426;44.726;10.390;2023-04-16T05:06:17;6.88;;;3.13;;
59607;SDS011;45426;44.726;10.390;2023-04-16T05:08:42;8.65;;;3.20;;
59607;SDS011;45426;44.726;10.390;2023-04-16T05:11:08;9.13;;;2.97;;
59607;SDS011;45426;44.726;10.390;2023-04-16T05:13:33;7.63;;;3.30;;
59607;SDS011;45426;44.726;10.390;2023-04-16T05:15:59;8.88;;;3.13;;
59607;SDS011;45426;44.726;10.390;2023-04-16T05:18:24;8.43;;;3.40;;
59607;SDS011;45426;44.726;10.390;2023-04-16T05:20:50;4.22;;;2.70;;
59607;SDS011;45426;44.726;10.390;2023-04-16T05:23:16;8.45;;;3.13;;
59607;SDS011;45426;44.726;10.390;2023-04-16T05:25:41;8.57;;;2.80;;
59607;SDS011;45426;44.726;10.390;2023-04-16T05:28:07;10.52;;;3.13;;
59607;SDS011;45426;44.726;10.390;2023-04-16T05:30:32;7.32;;;3.03;;
59607;SDS011;45426;44.726;10.390;2023-04-16T05:32:57;12.73;;;3.38;;
59607;SDS011;45426;44.726;10.390;2023-04-16T05:35:23;10.05;;;4.03;;
59607;SDS011;45426;44.726;10.390;2023-04-16T05:37:49;7.45;;;3.17;;
59607;SDS011;45426;44.726;10.390;2023-04-16T05:40:14;9.13;;;3.38;;
59607;SDS011;45426;44.726;10.390;2023-04-16T05:42:40;14.40;;;3.40;;
59607;SDS011;45426;44.726;10.390;2023-04-16T05:45:05;6.10;;;3.00;;
59607;SDS011;45426;44.726;10.390;2023-04-16T05:47:31;8.77;;;3.10;;
59607;SDS011;45426;44.726;10.390;2023-04-16T05:49:56;9.15;;;3.30;;
59607;SDS011;45426;44.726;10.390;2023-04-16T05:52:22;8.75;;;3.33;;
59607;SDS011;45426;44.726;10.390;2023-04-16T05:54:47;10.05;;;3.13;;
59607;SDS011;45426;44.726;10.390;2023-04-16T05:57:13;9.10;;;3.35;;
59607;SDS011;45426;44.726;10.390;2023-04-16T05:59:38;10.82;;;3.25;;
59607;SDS011;45426;44.726;10.390;2023-04-16T06:02:04;10.68;;;4.63;;
59607;SDS011;45426;44.726;10.390;2023-04-16T06:04:30;16.67;;;6.70;;
59607;SDS011;45426;44.726;10.390;2023-04-16T06:06:56;13.85;;;5.60;;
59607;SDS011;45426;44.726;10.390;2023-04-16T06:09:21;10.10;;;4.25;;
59607;SDS011;45426;44.726;10.390;2023-04-16T06:11:47;10.88;;;3.90;;
59607;SDS011;45426;44.726;10.390;2023-04-16T06:14:13;16.17;;;7.00;;
59607;SDS011;45426;44.726;10.390;2023-04-16T06:16:38;12.20;;;4.60;;
59607;SDS011;45426;44.726;10.390;2023-04-16T06:19:04;13.40;;;5.60;;
59607;SDS011;45426;44.726;10.390;2023-04-16T06:21:30;10.38;;;3.47;;
59607;SDS011;45426;44.726;10.390;2023-04-16T06:23:56;11.77;;;3.85;;
59607;SDS011;45426;44.726;10.390;2023-04-16T06:26:21;10.82;;;3.42;;
59607;SDS011;45426;44.726;10.390;2023-04-16T06:28:47;6.28;;;2.95;;
59607;SDS011;45426;44.726;10.390;2023-04-16T06:31:13;15.88;;;3.30;;
59607;SDS011;45426;44.726;10.390;2023-04-16T06:33:38;9.50;;;3.92;;
59607;SDS011;45426;44.726;10.390;2023-04-16T06:36:04;10.00;;;3.92;;
59607;SDS011;45426;44.726;10.390;2023-04-16T06:38:29;10.88;;;3.38;;
59607;SDS011;45426;44.726;10.390;2023-04-16T06:40:55;8.35;;;3.47;;
59607;SDS011;45426;44.726;10.390;2023-04-16T06:43:20;11.18;;;4.00;;
59607;SDS011;45426;44.726;10.390;2023-04-16T06:45:46;8.65;;;3.90;;
59607;SDS011;45426;44.726;10.390;2023-04-16T06:48:11;7.70;;;3.50;;
59607;SDS011;45426;44.726;10.390;2023-04-16T06:50:37;7.68;;;3.60;;
59607;SDS011;45426;44.726;10.390;2023-04-16T06:53:02;9.50;;;3.60;;
59607;SDS011;45426;44.726;10.390;2023-04-16T06:55:28;10.43;;;3.63;;
59607;SDS011;45426;44.726;10.390;2023-04-16T06:57:53;9.23;;;3.53;;
59607;SDS011;45426;44.726;10.390;2023-04-16T07:00:19;10.77;;;3.88;;
59607;SDS011;45426;44.726;10.390;2023-04-16T07:02:44;10.23;;;3.72;;
59607;SDS011;45426;44.726;10.390;2023-04-16T07:05:10;7.57;;;3.63;;
59607;SDS011;45426;44.726;10.390;2023-04-16T07:07:35;8.80;;;3.35;;
59607;SDS011;45426;44.726;10.390;2023-04-16T07:10:01;7.60;;;3.30;;
59607;SDS011;45426;44.726;10.390;2023-04-16T07:12:26;9.77;;;3.60;;
59607;SDS011;45426;44.726;10.390;2023-04-16T07:14:52;9.13;;;3.33;;
59607;SDS011;45426;44.726;10.390;2023-04-16T07:17:17;10.27;;;3.70;;
59607;SDS011;45426;44.726;10.390;2023-04-16T07:19:43;8.45;;;3.42;;
59607;SDS011;45426;44.726;10.390;2023-04-16T07:22:08;5.57;;;3.13;;
59607;SDS011;45426;44.726;10.390;2023-04-16T07:24:34;8.25;;;3.42;;
59607;SDS011;45426;44.726;10.390;2023-04-16T07:27:02;9.70;;;3.55;;
59607;SDS011;45426;44.726;10.390;2023-04-16T07:29:27;9.32;;;3.60;;
59607;SDS011;45426;44.726;10.390;2023-04-16T07:31:53;5.97;;;3.30;;
59607;SDS011;45426;44.726;10.390;2023-04-16T07:34:18;9.82;;;3.90;;
59607;SDS011;45426;44.726;10.390;2023-04-16T07:36:44;7.13;;;3.20;;
59607;SDS011;45426;44.726;10.390;2023-04-16T07:39:10;5.82;;;3.08;;
59607;SDS011;45426;44.726;10.390;2023-04-16T07:41:36;7.65;;;3.20;;
59607;SDS011;45426;44.726;10.390;2023-04-16T07:44:02;8.15;;;3.47;;
59607;SDS011;45426;44.726;10.390;2023-04-16T07:46:27;7.63;;;3.25;;
59607;SDS011;45426;44.726;10.390;2023-04-16T07:48:53;6.80;;;3.35;;
59607;SDS011;45426;44.726;10.390;2023-04-16T07:51:18;9.85;;;3.40;;
59607;SDS011;45426;44.726;10.390;2023-04-16T07:53:44;8.70;;;3.20;;
59607;SDS011;45426;44.726;10.390;2023-04-16T07:56:09;9.77;;;3.60;;
59607;SDS011;45426;44.726;10.390;2023-04-16T07:58:35;7.68;;;3.47;;
59607;SDS011;45426;44.726;10.390;2023-04-16T08:01:01;8.90;;;3.80;;
59607;SDS011;45426;44.726;10.390;2023-04-16T08:03:26;7.72;;;3.60;;
59607;SDS011;45426;44.726;10.390;2023-04-16T08:05:52;7.13;;;3.53;;
59607;SDS011;45426;44.726;10.390;2023-04-16T08:08:17;7.05;;;3.20;;
59607;SDS011;45426;44.726;10.390;2023-04-16T08:10:43;9.60;;;3.05;;
59607;SDS011;45426;44.726;10.390;2023-04-16T08:13:08;7.35;;;3.05;;
59607;SDS011;45426;44.726;10.390;2023-04-16T08:15:34;10.18;;;3.45;;
59607;SDS011;45426;44.726;10.390;2023-04-16T08:17:59;9.93;;;2.80;;
59607;SDS011;45426;44.726;10.390;2023-04-16T08:20:25;6.93;;;2.88;;
59607;SDS011;45426;44.726;10.390;2023-04-16T08:22:52;8.13;;;2.85;;
59607;SDS011;45426;44.726;10.390;2023-04-16T08:25:18;6.95;;;2.63;;
59607;SDS011;45426;44.726;10.390;2023-04-16T08:27:44;9.15;;;2.85;;
59607;SDS011;45426;44.726;10.390;2023-04-16T08:30:10;7.80;;;2.70;;
59607;SDS011;45426;44.726;10.390;2023-04-16T08:32:35;5.60;;;2.72;;
59607;SDS011;45426;44.726;10.390;2023-04-16T08:35:03;9.52;;;3.00;;
59607;SDS011;45426;44.726;10.390;2023-04-16T08:37:30;8.38;;;2.88;;
59607;SDS011;45426;44.726;10.390;2023-04-16T08:39:55;9.02;;;2.90;;
59607;SDS011;45426;44.726;10.390;2023-04-16T08:42:22;6.55;;;2.38;;
59607;SDS011;45426;44.726;10.390;2023-04-16T08:44:56;7.30;;;2.63;;
59607;SDS011;45426;44.726;10.390;2023-04-16T08:47:33;7.97;;;2.72;;
59607;SDS011;45426;44.726;10.390;2023-04-16T08:50:02;8.95;;;3.13;;
59607;SDS011;45426;44.726;10.390;2023-04-16T08:52:29;9.05;;;2.85;;
59607;SDS011;45426;44.726;10.390;2023-04-16T08:55:06;8.38;;;3.05;;
59607;SDS011;45426;44.726;10.390;2023-04-16T08:57:58;7.72;;;2.58;;
59607;SDS011;45426;44.726;10.390;2023-04-16T09:00:25;8.73;;;2.83;;
59607;SDS011;45426;44.726;10.390;2023-04-16T09:02:52;11.35;;;2.80;;
59607;SDS011;45426;44.726;10.390;2023-04-16T09:05:18;6.57;;;2.63;;
59607;SDS011;45426;44.726;10.390;2023-04-16T09:07:46;7.75;;;2.22;;
59607;SDS011;45426;44.726;10.390;2023-04-16T09:10:15;7.00;;;2.63;;
59607;SDS011;45426;44.726;10.390;2023-04-16T09:12:41;6.20;;;2.17;;
59607;SDS011;45426;44.726;10.390;2023-04-16T09:15:10;7.32;;;2.55;;
59607;SDS011;45426;44.726;10.390;2023-04-16T09:17:40;7.25;;;2.17;;
59607;SDS011;45426;44.726;10.390;2023-04-16T09:20:06;6.43;;;2.25;;
59607;SDS011;45426;44.726;10.390;2023-04-16T09:22:36;6.85;;;2.25;;
59607;SDS011;45426;44.726;10.390;2023-04-16T09:25:02;7.82;;;2.90;;
59607;SDS011;45426;44.726;10.390;2023-04-16T09:27:28;11.32;;;3.03;;
59607;SDS011;45426;44.726;10.390;2023-04-16T09:29:54;5.97;;;2.50;;
59607;SDS011;45426;44.726;10.390;2023-04-16T09:32:23;8.48;;;2.90;;
59607;SDS011;45426;44.726;10.390;2023-04-16T09:37:24;6.70;;;2.72;;
59607;SDS011;45426;44.726;10.390;2023-04-16T09:39:56;9.05;;;2.80;;
59607;SDS011;45426;44.726;10.390;2023-04-16T09:42:23;8.20;;;2.40;;
59607;SDS011;45426;44.726;10.390;2023-04-16T09:44:51;5.93;;;2.47;;
59607;SDS011;45426;44.726;10.390;2023-04-16T09:47:17;8.52;;;2.30;;
59607;SDS011;45426;44.726;10.390;2023-04-16T09:49:42;7.45;;;2.80;;
59607;SDS011;45426;44.726;10.390;2023-04-16T09:52:12;6.95;;;2.17;;
59607;SDS011;45426;44.726;10.390;2023-04-16T09:54:48;5.35;;;2.00;;
59607;SDS011;45426;44.726;10.390;2023-04-16T09:57:21;7.07;;;2.30;;
59607;SDS011;45426;44.726;10.390;2023-04-16T09:59:52;8.10;;;3.30;;
59607;SDS011;45426;44.726;10.390;2023-04-16T10:02:22;5.78;;;2.25;;
59607;SDS011;45426;44.726;10.390;2023-04-16T10:04:51;6.72;;;2.05;;
59607;SDS011;45426;44.726;10.390;2023-04-16T10:07:18;5.30;;;2.00;;
59607;SDS011;45426;44.726;10.390;2023-04-16T10:09:46;5.57;;;2.40;;
59607;SDS011;45426;44.726;10.390;2023-04-16T10:12:12;4.85;;;2.60;;
59607;SDS011;45426;44.726;10.390;2023-04-16T10:14:38;6.43;;;2.60;;
59607;SDS011;45426;44.726;10.390;2023-04-16T10:17:05;6.65;;;2.60;;
59607;SDS011;45426;44.726;10.390;2023-04-16T10:19:31;6.38;;;2.40;;
59607;SDS011;45426;44.726;10.390;2023-04-16T10:21:57;3.88;;;2.00;;
59607;SDS011;45426;44.726;10.390;2023-04-16T10:24:33;3.80;;;1.58;;
59607;SDS011;45426;44.726;10.390;2023-04-16T10:26:59;4.97;;;1.73;;
59607;SDS011;45426;44.726;10.390;2023-04-16T10:29:25;5.03;;;2.10;;
59607;SDS011;45426;44.726;10.390;2023-04-16T10:31:54;7.38;;;2.20;;
59607;SDS011;45426;44.726;10.390;2023-04-16T10:34:20;3.10;;;1.85;;
59607;SDS011;45426;44.726;10.390;2023-04-16T10:36:51;7.28;;;2.10;;
59607;SDS011;45426;44.726;10.390;2023-04-16T10:39:19;4.20;;;1.80;;
59607;SDS011;45426;44.726;10.390;2023-04-16T10:42:05;5.95;;;1.85;;
59607;SDS011;45426;44.726;10.390;2023-04-16T10:44:40;6.47;;;2.83;;
59607;SDS011;45426;44.726;10.390;2023-04-16T10:47:09;5.07;;;1.92;;
59607;SDS011;45426;44.726;10.390;2023-04-16T10:49:38;7.68;;;2.80;;
59607;SDS011;45426;44.726;10.390;2023-04-16T10:52:12;5.47;;;2.20;;
59607;SDS011;45426;44.726;10.390;2023-04-16T10:54:43;5.78;;;1.90;;
59607;SDS011;45426;44.726;10.390;2023-04-16T10:57:15;7.00;;;3.05;;
59607;SDS011;45426;44.726;10.390;2023-04-16T10:59:42;2.97;;;1.70;;
59607;SDS011;45426;44.726;10.390;2023-04-16T11:02:12;17.30;;;10.65;;
59607;SDS011;45426;44.726;10.390;2023-04-16T11:04:41;3.22;;;1.75;;
59607;SDS011;45426;44.726;10.390;2023-04-16T11:12:35;6.80;;;2.20;;
59607;SDS011;45426;44.726;10.390;2023-04-16T11:15:09;4.32;;;1.80;;
59607;SDS011;45426;44.726;10.390;2023-04-16T11:17:44;1.63;;;1.40;;
59607;SDS011;45426;44.726;10.390;2023-04-16T11:20:15;3.72;;;1.60;;
59607;SDS011;45426;44.726;10.390;2023-04-16T11:22:43;3.85;;;1.70;;
59607;SDS011;45426;44.726;10.390;2023-04-16T11:25:12;3.95;;;1.70;;
59607;SDS011;45426;44.726;10.390;2023-04-16T11:27:43;3.92;;;1.80;;
59607;SDS011;45426;44.726;10.390;2023-04-16T11:30:08;3.42;;;1.70;;
59607;SDS011;45426;44.726;10.390;2023-04-16T11:32:34;2.38;;;1.40;;
59607;SDS011;45426;44.726;10.390;2023-04-16T11:35:11;2.75;;;1.83;;
59607;SDS011;45426;44.726;10.390;2023-04-16T11:37:40;11.32;;;4.10;;
59607;SDS011;45426;44.726;10.390;2023-04-16T11:40:06;3.53;;;1.95;;
59607;SDS011;45426;44.726;10.390;2023-04-16T11:42:36;3.63;;;1.92;;
59607;SDS011;45426;44.726;10.390;2023-04-16T11:45:06;2.85;;;1.85;;
59607;SDS011;45426;44.726;10.390;2023-04-16T11:47:46;5.65;;;1.95;;
59607;SDS011;45426;44.726;10.390;2023-04-16T11:52:45;3.42;;;1.50;;
59607;SDS011;45426;44.726;10.390;2023-04-16T11:55:11;4.65;;;1.52;;
59607;SDS011;45426;44.726;10.390;2023-04-16T11:57:37;2.58;;;1.65;;
59607;SDS011;45426;44.726;10.390;2023-04-16T12:00:03;3.15;;;1.50;;
59607;SDS011;45426;44.726;10.390;2023-04-16T12:02:41;2.35;;;1.33;;
59607;SDS011;45426;44.726;10.390;2023-04-16T12:07:58;4.60;;;1.40;;
59607;SDS011;45426;44.726;10.390;2023-04-16T12:10:24;2.63;;;1.23;;
59607;SDS011;45426;44.726;10.390;2023-04-16T12:12:51;1.52;;;1.08;;
59607;SDS011;45426;44.726;10.390;2023-04-16T12:15:16;3.25;;;1.50;;
59607;SDS011;45426;44.726;10.390;2023-04-16T12:17:45;2.30;;;1.27;;
59607;SDS011;45426;44.726;10.390;2023-04-16T12:20:13;4.40;;;1.50;;
59607;SDS011;45426;44.726;10.390;2023-04-16T12:22:47;1.45;;;1.23;;
59607;SDS011;45426;44.726;10.390;2023-04-16T12:25:14;2.38;;;1.23;;
59607;SDS011;45426;44.726;10.390;2023-04-16T12:30:07;3.90;;;1.40;;
59607;SDS011;45426;44.726;10.390;2023-04-16T12:32:33;2.97;;;1.58;;
59607;SDS011;45426;44.726;10.390;2023-04-16T12:34:58;1.92;;;1.15;;
59607;SDS011;45426;44.726;10.390;2023-04-16T12:37:26;2.30;;;0.95;;
59607;SDS011;45426;44.726;10.390;2023-04-16T12:39:52;2.30;;;1.13;;
59607;SDS011;45426;44.726;10.390;2023-04-16T12:42:18;1.90;;;0.90;;
59607;SDS011;45426;44.726;10.390;2023-04-16T12:44:43;1.92;;;1.30;;
59607;SDS011;45426;44.726;10.390;2023-04-16T12:47:09;2.28;;;1.10;;
59607;SDS011;45426;44.726;10.390;2023-04-16T12:49:36;2.78;;;1.10;;
59607;SDS011;45426;44.726;10.390;2023-04-16T12:52:02;1.77;;;1.10;;
59607;SDS011;45426;44.726;10.390;2023-04-16T12:54:28;0.90;;;0.90;;
59607;SDS011;45426;44.726;10.390;2023-04-16T12:56:55;2.30;;;1.10;;
59607;SDS011;45426;44.726;10.390;2023-04-16T12:59:21;4.13;;;1.67;;
59607;SDS011;45426;44.726;10.390;2023-04-16T13:01:47;1.75;;;0.90;;
59607;SDS011;45426;44.726;10.390;2023-04-16T13:04:12;2.72;;;1.20;;
59607;SDS011;45426;44.726;10.390;2023-04-16T13:06:38;1.38;;;1.27;;
59607;SDS011;45426;44.726;10.390;2023-04-16T13:09:04;3.60;;;1.10;;
59607;SDS011;45426;44.726;10.390;2023-04-16T13:11:29;2.33;;;1.02;;
59607;SDS011;45426;44.726;10.390;2023-04-16T13:13:56;3.72;;;1.10;;
59607;SDS011;45426;44.726;10.390;2023-04-16T13:16:21;2.13;;;1.20;;
59607;SDS011;45426;44.726;10.390;2023-04-16T13:18:47;1.17;;;1.08;;
59607;SDS011;45426;44.726;10.390;2023-04-16T13:21:15;1.20;;;1.10;;
59607;SDS011;45426;44.726;10.390;2023-04-16T13:23:40;2.58;;;1.10;;
59607;SDS011;45426;44.726;10.390;2023-04-16T13:26:06;1.40;;;0.90;;
59607;SDS011;45426;44.726;10.390;2023-04-16T13:28:31;1.33;;;1.08;;
59607;SDS011;45426;44.726;10.390;2023-04-16T13:30:57;1.45;;;1.00;;
59607;SDS011;45426;44.726;10.390;2023-04-16T13:33:22;1.55;;;1.10;;
59607;SDS011;45426;44.726;10.390;2023-04-16T13:35:48;1.70;;;1.30;;
59607;SDS011;45426;44.726;10.390;2023-04-16T13:38:14;3.80;;;1.38;;
59607;SDS011;45426;44.726;10.390;2023-04-16T13:40:40;1.33;;;1.20;;
59607;SDS011;45426;44.726;10.390;2023-04-16T13:43:05;2.10;;;1.25;;
59607;SDS011;45426;44.726;10.390;2023-04-16T13:45:31;3.63;;;1.40;;
59607;SDS011;45426;44.726;10.390;2023-04-16T13:47:57;1.60;;;1.23;;
59607;SDS011;45426;44.726;10.390;2023-04-16T13:50:23;2.20;;;1.30;;
59607;SDS011;45426;44.726;10.390;2023-04-16T13:52:48;3.97;;;1.50;;
59607;SDS011;45426;44.726;10.390;2023-04-16T13:55:14;2.65;;;1.00;;
59607;SDS011;45426;44.726;10.390;2023-04-16T13:57:43;2.55;;;1.58;;
59607;SDS011;45426;44.726;10.390;2023-04-16T14:00:12;0.98;;;0.98;;
59607;SDS011;45426;44.726;10.390;2023-04-16T14:02:41;3.58;;;1.42;;
59607;SDS011;45426;44.726;10.390;2023-04-16T14:05:07;3.25;;;1.48;;
59607;SDS011;45426;44.726;10.390;2023-04-16T14:07:33;1.60;;;1.40;;
59607;SDS011;45426;44.726;10.390;2023-04-16T14:09:59;3.03;;;1.38;;
59607;SDS011;45426;44.726;10.390;2023-04-16T14:12:24;2.85;;;1.50;;
59607;SDS011;45426;44.726;10.390;2023-04-16T14:14:51;1.92;;;1.40;;
59607;SDS011;45426;44.726;10.390;2023-04-16T14:17:17;1.67;;;1.30;;
59607;SDS011;45426;44.726;10.390;2023-04-16T14:19:42;1.40;;;1.30;;
59607;SDS011;45426;44.726;10.390;2023-04-16T14:22:08;1.38;;;1.27;;
59607;SDS011;45426;44.726;10.390;2023-04-16T14:24:33;1.20;;;1.10;;
59607;SDS011;45426;44.726;10.390;2023-04-16T14:26:59;1.65;;;1.20;;
59607;SDS011;45426;44.726;10.390;2023-04-16T14:29:24;2.00;;;1.30;;
59607;SDS011;45426;44.726;10.390;2023-04-16T14:31:50;3.97;;;1.40;;
59607;SDS011;45426;44.726;10.390;2023-04-16T14:34:16;3.50;;;1.50;;
59607;SDS011;45426;44.726;10.390;2023-04-16T14:36:41;1.45;;;1.20;;
59607;SDS011;45426;44.726;10.390;2023-04-16T14:39:07;2.17;;;1.40;;
59607;SDS011;45426;44.726;10.390;2023-04-16T14:41:33;2.35;;;1.35;;
59607;SDS011;45426;44.726;10.390;2023-04-16T14:43:58;3.13;;;1.20;;
59607;SDS011;45426;44.726;10.390;2023-04-16T14:46:24;1.35;;;1.10;;